Time;durP1;ratioP1;P1;durP2;ratioP2;P2;SDS_P1;SDS_P2;PMS_P1;PMS_P2;Temp;Humidity;BMP_temperature;BMP_pressure;BME280_temperature;BME280_humidity;BME280_pressure;Samples;Min_cycle;Max_cycle;Signal;HPM_P1;HPM_P2
2021/05/16 00:01:35;;;;;;;3.25;0.68;;;12.40;88.60;;;;;;5126373;27;27395;-62
2021/05/16 00:05:01;;;;;;;1.88;0.75;;;12.40;88.00;;;;;;5126918;27;27312;-62
2021/05/16 00:08:16;;;;;;;2.20;0.90;;;12.40;88.40;;;;;;5125772;27;27478;-62
2021/05/16 00:11:28;;;;;;;0.80;0.50;;;12.40;88.40;;;;;;5108121;27;27729;-62
2021/05/16 00:14:22;;;;;;;1.70;0.88;;;12.40;88.80;;;;;;5125641;27;27380;-63
2021/05/16 00:17:21;;;;;;;2.88;0.77;;;12.40;89.20;;;;;;5096633;27;27378;-62
2021/05/16 00:20:29;;;;;;;2.67;1.10;;;12.40;89.10;;;;;;5126529;27;27487;-63
2021/05/16 00:23:20;;;;;;;2.97;0.80;;;12.40;89.00;;;;;;5123001;27;27416;-63
2021/05/16 00:26:17;;;;;;;3.55;0.82;;;12.40;89.30;;;;;;5126426;27;27337;-63
2021/05/16 00:29:23;;;;;;;1.58;0.70;;;12.40;89.10;;;;;;5126434;27;27461;-63
2021/05/16 00:32:28;;;;;;;1.25;0.60;;;12.40;88.30;;;;;;5126045;27;27470;-64
2021/05/16 00:35:55;;;;;;;1.48;0.80;;;12.40;89.60;;;;;;5125844;27;27397;-64
2021/05/16 00:39:41;;;;;;;2.10;0.50;;;12.40;89.00;;;;;;5125861;27;27451;-63
2021/05/16 00:42:54;;;;;;;4.03;0.70;;;12.40;88.90;;;;;;5109574;27;27565;-63
2021/05/16 00:45:46;;;;;;;1.92;0.80;;;12.40;89.50;;;;;;5122635;27;28066;-63
2021/05/16 00:48:44;;;;;;;2.53;0.90;;;12.40;88.90;;;;;;5126155;27;27423;-64
2021/05/16 00:51:41;;;;;;;1.13;0.80;;;12.30;88.90;;;;;;5125952;27;27467;-63
2021/05/16 00:54:53;;;;;;;10.20;1.15;;;12.40;89.50;;;;;;5122745;27;27411;-62
2021/05/16 00:57:52;;;;;;;1.48;0.80;;;12.40;89.60;;;;;;5107324;27;27427;-62
2021/05/16 01:00:58;;;;;;;0.77;0.73;;;12.40;89.50;;;;;;5107091;27;27381;-62
2021/05/16 01:03:56;;;;;;;1.75;0.80;;;12.40;88.60;;;;;;5103357;28;27419;-63
2021/05/16 01:07:14;;;;;;;5.78;1.02;;;12.40;89.50;;;;;;5104871;28;27430;-63
2021/05/16 01:10:45;;;;;;;4.30;1.02;;;12.40;89.40;;;;;;5104433;28;27473;-62
2021/05/16 01:13:37;;;;;;;1.95;1.08;;;12.30;89.60;;;;;;5100938;28;27414;-62
2021/05/16 01:16:30;;;;;;;2.95;1.02;;;12.40;89.70;;;;;;5100910;28;27438;-63
2021/05/16 01:19:23;;;;;;;1.60;0.80;;;12.40;89.70;;;;;;5100691;28;27408;-63
2021/05/16 01:22:13;;;;;;;3.28;0.90;;;12.40;88.80;;;;;;5105048;28;27497;-62
2021/05/16 01:25:49;;;;;;;4.13;1.73;;;12.30;90.00;;;;;;5101207;28;27427;-63
2021/05/16 01:29:16;;;;;;;4.57;1.00;;;12.30;89.10;;;;;;5075223;28;27404;-63
2021/05/16 01:32:11;;;;;;;1.88;0.90;;;12.40;89.40;;;;;;5103757;28;27409;-63
2021/05/16 01:35:15;;;;;;;2.15;0.93;;;12.30;88.60;;;;;;5104621;28;27944;-62
2021/05/16 01:38:07;;;;;;;2.25;0.82;;;12.30;89.60;;;;;;5077178;28;27339;-62
2021/05/16 01:41:05;;;;;;;2.33;1.10;;;12.30;89.40;;;;;;5101341;28;27425;-61
2021/05/16 01:44:25;;;;;;;1.23;0.88;;;12.30;89.40;;;;;;5101540;28;27342;-63
2021/05/16 01:47:17;;;;;;;1.88;0.95;;;12.30;89.70;;;;;;5103371;28;27352;-62
2021/05/16 01:50:13;;;;;;;4.05;1.00;;;12.30;90.00;;;;;;5104524;28;27469;-64
2021/05/16 01:53:05;;;;;;;1.33;0.93;;;12.30;89.40;;;;;;5104338;28;27431;-63
2021/05/16 01:56:30;;;;;;;1.73;1.10;;;12.30;89.70;;;;;;5104552;28;27381;-64
2021/05/16 01:59:36;;;;;;;2.40;1.10;;;12.30;89.90;;;;;;5104118;28;27418;-63
2021/05/16 02:02:34;;;;;;;5.22;1.95;;;12.30;90.00;;;;;;5106743;27;27426;-63
2021/05/16 02:05:32;;;;;;;3.08;1.10;;;12.30;89.60;;;;;;5106169;27;27395;-63
2021/05/16 02:08:46;;;;;;;2.25;1.00;;;12.30;89.80;;;;;;5109180;27;27449;-63
2021/05/16 02:12:22;;;;;;;3.05;1.58;;;12.30;89.70;;;;;;5121552;27;27403;-64
2021/05/16 02:15:49;;;;;;;3.55;0.90;;;12.30;89.60;;;;;;5108244;27;27345;-63
2021/05/16 02:18:42;;;;;;;3.15;0.90;;;12.30;89.90;;;;;;5123916;27;27451;-63
2021/05/16 02:21:56;;;;;;;1.90;1.02;;;12.30;90.00;;;;;;5121134;27;27438;-64
2021/05/16 02:24:49;;;;;;;2.58;0.90;;;12.30;90.30;;;;;;5108055;27;27657;-63
2021/05/16 02:28:09;;;;;;;1.77;0.90;;;12.30;90.20;;;;;;5105719;27;27399;-64
2021/05/16 02:31:22;;;;;;;0.95;0.60;;;12.30;90.10;;;;;;5105794;27;27474;-62
2021/05/16 02:34:10;;;;;;;1.40;1.00;;;12.30;90.10;;;;;;5108169;27;26988;-60
2021/05/16 02:37:07;;;;;;;1.40;0.90;;;12.30;90.30;;;;;;5105394;27;27319;-62
2021/05/16 02:40:02;;;;;;;2.30;1.00;;;12.30;90.30;;;;;;5105645;27;27521;-63
2021/05/16 02:43:17;;;;;;;2.60;0.80;;;12.30;90.20;;;;;;5105547;27;27439;-62
2021/05/16 02:47:02;;;;;;;2.22;0.77;;;12.30;90.30;;;;;;5120570;27;27449;-62
2021/05/16 02:50:01;;;;;;;1.40;0.98;;;12.30;90.30;;;;;;5107467;27;27578;-63
2021/05/16 02:53:20;;;;;;;1.88;0.77;;;12.30;90.30;;;;;;5120991;27;27477;-63
2021/05/16 02:56:33;;;;;;;3.75;1.10;;;12.30;90.20;;;;;;5120762;27;27418;-63
2021/05/16 02:59:23;;;;;;;1.70;0.75;;;12.30;90.50;;;;;;5093157;27;27651;-61
2021/05/16 03:02:15;;;;;;;2.30;0.80;;;12.30;90.60;;;;;;5123282;27;27356;-63
2021/05/16 03:05:41;;;;;;;3.10;0.98;;;12.30;90.40;;;;;;5105452;27;27425;-63
2021/05/16 03:08:47;;;;;;;4.60;1.30;;;12.30;90.40;;;;;;5122764;27;27485;-63
2021/05/16 03:11:48;;;;;;;1.08;0.77;;;12.30;88.00;;;;;;5105325;27;27481;-62
2021/05/16 03:14:49;;;;;;;1.92;0.90;;;12.30;89.40;;;;;;5124117;27;27386;-62
2021/05/16 03:18:00;;;;;;;1.58;0.77;;;12.30;90.10;;;;;;5107784;27;27478;-62
2021/05/16 03:20:53;;;;;;;1.65;0.90;;;12.30;90.40;;;;;;5124040;27;27475;-62
2021/05/16 03:24:06;;;;;;;4.15;1.05;;;12.30;88.20;;;;;;5120725;27;27396;-62
2021/05/16 03:27:12;;;;;;;4.55;0.80;;;12.20;84.50;;;;;;5123805;27;27969;-62
2021/05/16 03:30:21;;;;;;;2.22;0.80;;;12.20;88.10;;;;;;5123382;27;27373;-62
2021/05/16 03:33:18;;;;;;;1.95;0.95;;;12.20;87.30;;;;;;5090607;27;27324;-63
2021/05/16 03:36:24;;;;;;;2.20;0.98;;;12.20;90.00;;;;;;5123617;27;27410;-62
2021/05/16 03:39:30;;;;;;;2.95;0.98;;;12.20;90.30;;;;;;5123783;27;27413;-63
2021/05/16 03:42:38;;;;;;;1.20;0.80;;;12.20;90.40;;;;;;5122932;27;27470;-63
2021/05/16 03:45:46;;;;;;;2.63;0.90;;;12.20;90.40;;;;;;5122923;27;27659;-63
2021/05/16 03:48:52;;;;;;;1.70;0.98;;;12.20;90.50;;;;;;5122775;27;27510;-63
2021/05/16 03:52:04;;;;;;;1.67;0.77;;;12.20;90.40;;;;;;5126640;27;27505;-63
2021/05/16 03:55:19;;;;;;;1.17;0.93;;;12.20;90.40;;;;;;5125524;27;27430;-64
2021/05/16 03:58:37;;;;;;;1.80;0.70;;;12.20;90.30;;;;;;5126410;27;27580;-63
2021/05/16 04:01:34;;;;;;;1.75;1.00;;;12.20;90.60;;;;;;5126943;27;27482;-63
2021/05/16 04:04:41;;;;;;;1.83;0.73;;;12.20;90.60;;;;;;5105989;28;27451;-63
2021/05/16 04:07:54;;;;;;;3.53;0.90;;;12.20;90.50;;;;;;5105686;28;27411;-64
2021/05/16 04:11:08;;;;;;;1.35;0.85;;;12.20;90.50;;;;;;5090378;28;27551;-63
2021/05/16 04:14:06;;;;;;;2.80;0.82;;;12.20;90.70;;;;;;5105006;28;27469;-63
2021/05/16 04:17:13;;;;;;;1.50;0.80;;;12.20;90.50;;;;;;5106326;28;27465;-62
2021/05/16 04:20:21;;;;;;;0.88;0.60;;;12.20;90.60;;;;;;5105496;28;27441;-62
2021/05/16 04:23:19;;;;;;;1.33;0.88;;;12.20;90.50;;;;;;5105708;28;27393;-62
2021/05/16 04:26:31;;;;;;;0.82;0.60;;;12.20;90.70;;;;;;5105358;28;27629;-64
2021/05/16 04:29:37;;;;;;;1.00;0.73;;;12.20;89.50;;;;;;5101838;28;27382;-63
2021/05/16 04:32:34;;;;;;;1.85;0.75;;;12.20;90.50;;;;;;5105524;28;27314;-63
2021/05/16 04:35:36;;;;;;;3.22;0.98;;;12.30;90.40;;;;;;5105906;28;27407;-64
2021/05/16 04:38:57;;;;;;;1.15;0.80;;;12.30;89.70;;;;;;5081388;28;27401;-63
2021/05/16 04:41:48;;;;;;;1.70;0.93;;;12.30;90.20;;;;;;5105328;28;27363;-63
2021/05/16 04:44:38;;;;;;;2.40;0.82;;;12.30;88.70;;;;;;5105714;28;27509;-64
2021/05/16 04:47:30;;;;;;;1.17;0.77;;;12.30;89.00;;;;;;5105246;28;27378;-63
2021/05/16 04:50:23;;;;;;;0.75;0.70;;;12.30;87.00;;;;;;5105622;28;27412;-64
2021/05/16 04:53:36;;;;;;;1.27;0.68;;;12.30;86.30;;;;;;5089789;28;27685;-63
2021/05/16 04:56:48;;;;;;;2.45;0.90;;;12.30;85.90;;;;;;5104861;28;27394;-64
2021/05/16 05:00:01;;;;;;;1.00;0.70;;;12.30;86.00;;;;;;5104759;28;27435;-63
2021/05/16 05:02:47;;;;;;;2.72;0.80;;;12.30;86.10;;;;;;5112160;27;27411;-61
2021/05/16 05:05:37;;;;;;;3.72;1.00;;;12.30;85.90;;;;;;5110476;27;27496;-63
2021/05/16 05:08:30;;;;;;;1.45;0.75;;;12.30;86.20;;;;;;5125318;27;27423;-63
2021/05/16 05:11:28;;;;;;;1.58;0.85;;;12.30;85.90;;;;;;5125668;27;27437;-63
2021/05/16 05:14:33;;;;;;;1.92;0.70;;;12.30;86.10;;;;;;5125795;27;27423;-61
2021/05/16 05:17:42;;;;;;;1.77;0.52;;;12.30;85.80;;;;;;5125485;27;27587;-62
2021/05/16 05:20:46;;;;;;;1.00;0.70;;;12.30;85.70;;;;;;5124622;27;27477;-63
2021/05/16 05:23:59;;;;;;;1.65;0.50;;;12.30;86.40;;;;;;5086281;27;27539;-63
2021/05/16 05:27:11;;;;;;;6.05;0.70;;;12.30;86.50;;;;;;5125479;27;27525;-63
2021/05/16 05:30:24;;;;;;;2.67;0.77;;;12.30;87.10;;;;;;5125099;27;27375;-63
2021/05/16 05:33:30;;;;;;;1.50;0.60;;;12.30;86.90;;;;;;5125170;27;27383;-63
2021/05/16 05:36:24;;;;;;;2.95;0.65;;;12.30;86.70;;;;;;5124644;27;27392;-62
2021/05/16 05:39:15;;;;;;;1.40;0.70;;;12.40;87.10;;;;;;5081706;27;27517;-62
2021/05/16 05:42:06;;;;;;;1.80;0.60;;;12.40;87.30;;;;;;5125062;27;27903;-63
2021/05/16 05:44:57;;;;;;;3.10;1.10;;;12.50;87.30;;;;;;5124972;27;27360;-63
2021/05/16 05:47:55;;;;;;;2.20;0.65;;;12.50;87.10;;;;;;5124588;27;27701;-62
2021/05/16 05:50:49;;;;;;;3.08;0.85;;;12.60;86.40;;;;;;5125347;27;26926;-63
2021/05/16 05:53:42;;;;;;;2.72;0.95;;;12.80;86.60;;;;;;5096245;27;27379;-62
2021/05/16 05:56:43;;;;;;;1.08;0.65;;;12.90;86.00;;;;;;5124943;27;27454;-62
2021/05/16 05:59:40;;;;;;;2.08;0.63;;;13.00;85.50;;;;;;5124866;27;27467;-63
2021/05/16 06:02:51;;;;;;;3.63;1.98;;;13.10;84.80;;;;;;5106257;27;27427;-63
2021/05/16 06:05:56;;;;;;;13.45;6.72;;;13.10;84.40;;;;;;5125013;27;27869;-62
2021/05/16 06:09:10;;;;;;;9.55;3.70;;;13.10;85.00;;;;;;5124592;27;27375;-63
2021/05/16 06:12:23;;;;;;;13.45;5.95;;;13.10;85.90;;;;;;5089333;27;27421;-64
2021/05/16 06:15:35;;;;;;;5.63;2.28;;;13.20;86.00;;;;;;5089323;27;27370;-64
2021/05/16 06:18:35;;;;;;;25.05;13.05;;;13.40;86.60;;;;;;5124660;27;27415;-62
2021/05/16 06:21:28;;;;;;;14.82;8.45;;;13.60;85.80;;;;;;5121211;27;27411;-63
2021/05/16 06:24:19;;;;;;;5.85;2.80;;;13.90;84.90;;;;;;5124601;27;27337;-63
2021/05/16 06:27:25;;;;;;;2.35;1.15;;;14.10;84.30;;;;;;5105663;27;27470;-64
2021/05/16 06:30:36;;;;;;;3.90;2.42;;;14.40;83.50;;;;;;5124387;27;27836;-64
2021/05/16 06:33:32;;;;;;;2.72;1.15;;;14.80;81.40;;;;;;5124237;27;27713;-64
2021/05/16 06:36:24;;;;;;;2.00;0.95;;;15.20;80.80;;;;;;5124373;27;26888;-63
2021/05/16 06:39:22;;;;;;;4.68;1.55;;;15.20;80.20;;;;;;5124607;27;27330;-64
2021/05/16 06:42:28;;;;;;;1.40;0.90;;;15.20;81.50;;;;;;5124160;27;27362;-64
2021/05/16 06:45:54;;;;;;;3.33;1.00;;;15.10;81.30;;;;;;5105740;27;27440;-63
2021/05/16 06:49:03;;;;;;;1.83;0.95;;;15.10;81.90;;;;;;5124272;27;27474;-63
2021/05/16 06:51:54;;;;;;;1.17;0.60;;;15.20;82.00;;;;;;5124398;27;27336;-64
2021/05/16 06:54:59;;;;;;;2.80;1.17;;;15.30;82.50;;;;;;5124314;27;27453;-64
2021/05/16 06:57:50;;;;;;;1.08;0.73;;;15.30;82.60;;;;;;5123597;27;27474;-63
2021/05/16 07:01:12;;;;;;;2.38;0.70;;;15.40;81.90;;;;;;5120462;27;27447;-64
2021/05/16 07:04:05;;;;;;;1.95;1.00;;;15.50;81.40;;;;;;5093612;27;27475;-63
2021/05/16 07:07:18;;;;;;;1.00;0.68;;;15.80;81.50;;;;;;5124034;27;27933;-63
2021/05/16 07:10:25;;;;;;;2.53;1.00;;;16.30;80.40;;;;;;5108378;27;27468;-64
2021/05/16 07:13:15;;;;;;;2.28;0.70;;;16.70;77.90;;;;;;5123757;27;27425;-63
2021/05/16 07:16:07;;;;;;;2.60;0.70;;;17.10;77.40;;;;;;5123797;27;27382;-63
2021/05/16 07:19:04;;;;;;;1.27;0.70;;;17.50;75.00;;;;;;5123748;27;27442;-61
2021/05/16 07:21:55;;;;;;;2.60;0.85;;;17.40;75.50;;;;;;5123975;27;27348;-61
2021/05/16 07:24:45;;;;;;;1.80;0.70;;;17.30;73.60;;;;;;5122828;27;27410;-64
2021/05/16 07:27:37;;;;;;;5.15;1.42;;;17.40;72.60;;;;;;5127147;27;27405;-63
2021/05/16 07:30:27;;;;;;;6.00;3.42;;;17.70;72.50;;;;;;5127941;27;27481;-63
2021/05/16 07:33:18;;;;;;;4.35;2.30;;;18.20;72.40;;;;;;5124394;27;27466;-64
2021/05/16 07:36:10;;;;;;;7.00;3.35;;;18.50;69.90;;;;;;5127042;27;27343;-64
2021/05/16 07:39:07;;;;;;;4.88;1.52;;;18.80;68.50;;;;;;5127479;27;27461;-64
2021/05/16 07:42:04;;;;;;;3.13;1.05;;;19.10;68.30;;;;;;5127636;27;27466;-64
2021/05/16 07:44:55;;;;;;;2.42;1.00;;;19.30;68.30;;;;;;5127346;27;27414;-64
2021/05/16 07:48:02;;;;;;;10.88;1.35;;;19.30;67.70;;;;;;5108727;27;27503;-64
2021/05/16 07:51:07;;;;;;;3.22;1.42;;;19.10;68.30;;;;;;5126919;27;27419;-63
2021/05/16 07:54:04;;;;;;;4.22;1.20;;;18.90;67.60;;;;;;5126431;27;27422;-63
2021/05/16 07:57:15;;;;;;;5.93;1.05;;;18.60;70.40;;;;;;5126810;27;27319;-63
2021/05/16 08:00:21;;;;;;;2.78;1.40;;;18.50;72.10;;;;;;5126513;27;27353;-63
2021/05/16 08:03:11;;;;;;;1.17;0.95;;;18.40;73.00;;;;;;5126187;27;27606;-64
2021/05/16 08:06:04;;;;;;;3.35;1.20;;;19.00;72.70;;;;;;5095656;27;27338;-64
2021/05/16 08:09:02;;;;;;;7.78;1.30;;;19.70;70.30;;;;;;5108002;27;27373;-63
2021/05/16 08:11:53;;;;;;;3.28;0.93;;;20.10;69.10;;;;;;5084875;27;27524;-64
2021/05/16 08:15:00;;;;;;;4.75;1.30;;;20.40;66.30;;;;;;5126479;27;27335;-64
2021/05/16 08:18:27;;;;;;;5.55;1.20;;;21.00;65.50;;;;;;5111026;27;27349;-61
2021/05/16 08:21:19;;;;;;;4.78;1.73;;;21.60;64.20;;;;;;5125621;27;27350;-61
2021/05/16 08:24:24;;;;;;;4.38;1.50;;;21.90;62.00;;;;;;5127302;27;27335;-61
2021/05/16 08:27:16;;;;;;;5.50;1.45;;;22.30;59.30;;;;;;5126930;27;27332;-61
2021/05/16 08:30:32;;;;;;;3.83;1.20;;;22.30;60.20;;;;;;5127095;27;27344;-62
2021/05/16 08:33:49;;;;;;;4.82;1.25;;;22.40;59.40;;;;;;5125414;27;27410;-62
2021/05/16 08:36:47;;;;;;;7.80;1.50;;;22.60;59.00;;;;;;5126323;27;27360;-61
2021/05/16 08:39:38;;;;;;;3.33;1.15;;;22.70;58.50;;;;;;5084577;27;27520;-61
2021/05/16 08:42:29;;;;;;;6.57;1.42;;;22.80;57.50;;;;;;5127074;27;27408;-61
2021/05/16 08:45:35;;;;;;;3.85;1.35;;;22.80;58.10;;;;;;5127299;27;27427;-61
2021/05/16 08:48:29;;;;;;;4.97;1.38;;;22.80;56.40;;;;;;5126492;27;27403;-61
2021/05/16 08:51:23;;;;;;;3.83;1.30;;;22.80;57.60;;;;;;5123653;27;27385;-62
2021/05/16 08:54:53;;;;;;;10.80;2.28;;;23.20;57.50;;;;;;5126936;27;27438;-62
2021/05/16 08:57:46;;;;;;;8.18;1.40;;;23.70;58.40;;;;;;5126112;27;27561;-61
2021/05/16 09:00:45;;;;;;;5.80;1.35;;;24.00;55.40;;;;;;5124939;27;27415;-61
2021/05/16 09:04:10;;;;;;;4.80;1.25;;;24.20;54.70;;;;;;5104803;28;27426;-60
2021/05/16 09:06:56;;;;;;;4.85;1.17;;;23.90;57.00;;;;;;5105454;28;27848;-61
2021/05/16 09:09:46;;;;;;;5.40;1.20;;;23.40;56.20;;;;;;5105818;28;27317;-61
2021/05/16 09:12:33;;;;;;;5.95;1.48;;;23.30;56.30;;;;;;5106145;28;27461;-61
2021/05/16 09:15:33;;;;;;;7.03;1.65;;;23.70;54.50;;;;;;5090827;28;27383;-61
2021/05/16 09:18:34;;;;;;;4.57;1.17;;;24.00;54.30;;;;;;5101957;28;27892;-61
2021/05/16 09:21:30;;;;;;;3.05;1.00;;;24.30;54.20;;;;;;5105596;28;27340;-62
2021/05/16 09:24:27;;;;;;;3.58;1.25;;;24.30;52.30;;;;;;5105828;28;27406;-62
2021/05/16 09:27:23;;;;;;;5.18;1.30;;;24.20;53.50;;;;;;5104903;28;27643;-61
2021/05/16 09:30:25;;;;;;;4.13;1.40;;;24.20;53.70;;;;;;5105078;28;27455;-61
2021/05/16 09:33:31;;;;;;;2.60;1.30;;;24.20;55.70;;;;;;5105667;28;27319;-62
2021/05/16 09:36:32;;;;;;;9.07;2.03;;;24.40;54.30;;;;;;5105372;28;27381;-62
2021/05/16 09:39:23;;;;;;;6.13;1.65;;;24.40;53.50;;;;;;5105666;28;27447;-62
2021/05/16 09:42:13;;;;;;;5.38;1.73;;;24.60;54.00;;;;;;5105562;28;27910;-61
2021/05/16 09:45:27;;;;;;;2.95;1.55;;;24.90;52.60;;;;;;5105573;28;27301;-62
2021/05/16 09:48:33;;;;;;;6.38;1.50;;;25.00;52.20;;;;;;5074691;28;27394;-64
2021/05/16 09:51:24;;;;;;;5.90;2.25;;;25.00;53.20;;;;;;5105483;28;27387;-62
2021/05/16 09:54:16;;;;;;;4.95;2.22;;;25.00;52.80;;;;;;5104888;28;27837;-61
2021/05/16 09:57:13;;;;;;;4.18;1.52;;;25.10;52.00;;;;;;5105068;28;27391;-62
2021/05/16 10:00:19;;;;;;;5.50;1.50;;;25.00;52.70;;;;;;5105107;28;27457;-62
2021/05/16 10:03:19;;;;;;;5.97;1.33;;;25.10;52.60;;;;;;5112521;27;27592;-62
2021/05/16 10:06:32;;;;;;;2.92;0.98;;;25.30;52.30;;;;;;5082719;27;27383;-62
2021/05/16 10:09:29;;;;;;;5.05;1.15;;;25.60;51.70;;;;;;5125767;27;27415;-61
2021/05/16 10:12:27;;;;;;;1.90;0.95;;;25.80;51.50;;;;;;5125778;27;27395;-62
2021/05/16 10:15:47;;;;;;;4.03;1.10;;;25.90;51.20;;;;;;5121907;27;27414;-62
2021/05/16 10:18:44;;;;;;;8.38;1.88;;;26.20;50.80;;;;;;5125378;27;27406;-64
2021/05/16 10:22:17;;;;;;;8.10;1.92;;;26.20;47.90;;;;;;5108463;27;27381;-66
2021/05/16 10:25:39;;;;;;;3.30;1.50;;;25.90;42.30;;;;;;5125355;27;27367;-62
2021/05/16 10:28:54;;;;;;;10.10;1.80;;;25.40;42.80;;;;;;5112941;27;27498;-63
2021/05/16 10:31:53;;;;;;;5.05;1.13;;;24.90;41.50;;;;;;5109888;27;27493;-61
2021/05/16 10:34:39;;;;;;;6.65;1.33;;;24.70;42.40;;;;;;5110092;27;27383;-60
2021/05/16 10:37:48;;;;;;;3.25;0.98;;;24.50;45.10;;;;;;5125432;27;27377;-61
2021/05/16 10:41:14;;;;;;;3.65;1.40;;;24.40;48.30;;;;;;5124814;27;26986;-61
2021/05/16 10:44:54;;;;;;;4.50;1.52;;;24.40;49.60;;;;;;5112617;27;27419;-60
2021/05/16 10:47:48;;;;;;;4.53;1.30;;;24.70;50.60;;;;;;5020771;28;27378;-60
2021/05/16 10:50:59;;;;;;;3.78;1.02;;;24.80;52.00;;;;;;5021895;28;27419;-59
2021/05/16 10:53:50;;;;;;;5.50;1.77;;;24.70;52.30;;;;;;5022105;28;27500;-61
2021/05/16 10:56:41;;;;;;;5.03;1.10;;;24.60;52.90;;;;;;5022130;28;27839;-60
2021/05/16 10:59:37;;;;;;;5.35;1.65;;;24.60;54.10;;;;;;5004202;28;27581;-60
2021/05/16 11:03:00;;;;;;;2.33;0.95;;;24.60;53.90;;;;;;5005390;28;27589;-61
2021/05/16 11:05:59;;;;;;;3.40;1.08;;;24.70;55.60;;;;;;5006201;28;27730;-60
2021/05/16 11:08:48;;;;;;;5.43;1.30;;;24.80;55.20;;;;;;5004830;28;27374;-60
2021/05/16 11:12:06;;;;;;;2.92;1.10;;;25.00;54.80;;;;;;5005580;28;27433;-61
2021/05/16 11:14:57;;;;;;;3.38;0.93;;;25.20;54.20;;;;;;5004890;28;27672;-61
2021/05/16 11:17:48;;;;;;;4.95;1.20;;;25.40;56.20;;;;;;5005544;28;27477;-60
2021/05/16 11:20:41;;;;;;;3.20;0.93;;;25.60;55.90;;;;;;5005468;28;27422;-60
2021/05/16 11:23:32;;;;;;;5.22;1.20;;;25.80;54.10;;;;;;5062569;28;27436;-60
2021/05/16 11:26:25;;;;;;;2.40;1.10;;;25.80;54.50;;;;;;5085492;28;27360;-60
2021/05/16 11:29:17;;;;;;;4.40;1.77;;;25.70;54.50;;;;;;5082502;28;27411;-60
2021/05/16 11:32:44;;;;;;;3.10;1.05;;;25.60;55.50;;;;;;5086990;28;27417;-60
2021/05/16 11:35:36;;;;;;;5.97;1.25;;;25.30;53.80;;;;;;5086776;28;27429;-60
2021/05/16 11:38:31;;;;;;;2.95;1.10;;;25.00;54.70;;;;;;5087249;28;27541;-60
2021/05/16 11:41:38;;;;;;;2.78;0.98;;;24.90;55.80;;;;;;5086470;28;27418;-60
2021/05/16 11:44:28;;;;;;;2.38;0.80;;;24.80;55.20;;;;;;5087046;28;27525;-60
2021/05/16 11:47:32;;;;;;;5.43;1.80;;;24.70;56.70;;;;;;5082855;28;27490;-60
2021/05/16 11:50:16;;;;;;;4.30;0.90;;;24.70;57.60;;;;;;5086401;28;27452;-60
2021/05/16 11:53:29;;;;;;;3.20;0.80;;;24.90;57.50;;;;;;5086687;28;27316;-60
2021/05/16 11:56:55;;;;;;;3.72;1.17;;;25.00;56.00;;;;;;5086466;28;27950;-60
2021/05/16 11:59:41;;;;;;;4.05;1.00;;;25.10;55.20;;;;;;5086461;28;27413;-60
2021/05/16 12:02:37;;;;;;;3.42;1.10;;;25.30;57.60;;;;;;5091877;27;27407;-59
2021/05/16 12:05:49;;;;;;;1.92;0.70;;;25.40;57.20;;;;;;5127520;27;27372;-60
2021/05/16 12:08:40;;;;;;;1.80;0.77;;;25.50;56.60;;;;;;5126745;27;27422;-60
2021/05/16 12:11:34;;;;;;;4.47;0.93;;;25.60;57.50;;;;;;5125910;27;27449;-60
2021/05/16 12:14:24;;;;;;;3.72;0.88;;;25.50;57.00;;;;;;5127696;27;27552;-60
2021/05/16 12:17:20;;;;;;;7.72;0.90;;;25.40;54.30;;;;;;5127579;27;27385;-61
2021/05/16 12:20:29;;;;;;;2.28;0.80;;;25.10;52.00;;;;;;5108579;27;27375;-63
2021/05/16 12:23:45;;;;;;;4.47;1.08;;;24.80;50.80;;;;;;5126613;27;27427;-63
2021/05/16 12:26:42;;;;;;;1.60;0.70;;;24.50;53.50;;;;;;5099691;27;27458;-62
2021/05/16 12:29:33;;;;;;;1.65;0.88;;;24.20;54.90;;;;;;5127074;27;27462;-62
2021/05/16 12:32:34;;;;;;;3.20;0.80;;;24.00;53.00;;;;;;5108412;27;27435;-62
2021/05/16 12:35:31;;;;;;;3.90;1.23;;;23.70;52.40;;;;;;5071078;27;27440;-62
2021/05/16 12:38:26;;;;;;;2.13;0.68;;;23.50;54.50;;;;;;5126548;27;27469;-62
2021/05/16 12:41:19;;;;;;;2.88;0.90;;;23.20;54.20;;;;;;5111989;27;27330;-61
2021/05/16 12:44:08;;;;;;;4.07;1.73;;;23.10;55.40;;;;;;5126804;27;27813;-63
2021/05/16 12:46:59;;;;;;;3.20;1.10;;;23.00;55.10;;;;;;5108092;27;27470;-62
2021/05/16 12:50:21;;;;;;;3.20;0.80;;;22.90;55.50;;;;;;5127022;27;27308;-62
2021/05/16 12:53:40;;;;;;;2.15;0.88;;;22.80;55.90;;;;;;5126970;27;27420;-62
2021/05/16 12:56:44;;;;;;;3.60;0.82;;;22.70;55.10;;;;;;5126890;27;27369;-61
2021/05/16 12:59:42;;;;;;;4.28;1.45;;;22.60;55.80;;;;;;5084483;27;27418;-60
2021/05/16 13:02:55;;;;;;;2.88;1.45;;;22.40;52.70;;;;;;5125921;27;27403;-61
2021/05/16 13:05:52;;;;;;;2.33;0.70;;;22.30;53.30;;;;;;5124699;27;27708;-62
2021/05/16 13:08:58;;;;;;;3.08;1.13;;;22.10;51.60;;;;;;5126575;27;27347;-62
2021/05/16 13:12:09;;;;;;;2.72;0.90;;;21.90;52.70;;;;;;5126249;27;27404;-61
2021/05/16 13:15:17;;;;;;;4.97;0.93;;;21.70;53.10;;;;;;5126443;27;27340;-60
2021/05/16 13:18:25;;;;;;;1.75;0.90;;;21.50;52.40;;;;;;5110894;27;27472;-62
2021/05/16 13:21:14;;;;;;;2.97;0.90;;;21.30;52.80;;;;;;5126019;27;27427;-61
2021/05/16 13:24:28;;;;;;;2.92;1.15;;;21.30;54.00;;;;;;5126248;27;27394;-61
2021/05/16 13:27:19;;;;;;;2.33;1.05;;;21.10;53.10;;;;;;5111118;27;27431;-61
2021/05/16 13:30:24;;;;;;;1.98;0.93;;;21.00;55.20;;;;;;5126413;27;27328;-62
2021/05/16 13:33:38;;;;;;;2.85;1.02;;;21.00;57.40;;;;;;5110006;27;27492;-61
2021/05/16 13:36:43;;;;;;;2.85;0.82;;;21.00;55.70;;;;;;5125673;27;27419;-60
2021/05/16 13:39:36;;;;;;;2.03;0.63;;;21.00;57.10;;;;;;5125953;27;27419;-61
2021/05/16 13:42:27;;;;;;;2.95;0.90;;;21.00;57.50;;;;;;5125996;27;27378;-61
2021/05/16 13:45:45;;;;;;;3.60;0.80;;;21.00;56.10;;;;;;5126269;27;27941;-61
2021/05/16 13:48:36;;;;;;;2.38;0.88;;;21.00;57.20;;;;;;5125298;27;27412;-61
2021/05/16 13:51:37;;;;;;;1.48;0.75;;;20.80;54.50;;;;;;5125870;27;27446;-61
2021/05/16 13:54:31;;;;;;;2.88;0.65;;;20.70;56.00;;;;;;5126020;27;27452;-61
2021/05/16 13:57:32;;;;;;;1.80;0.82;;;20.60;54.20;;;;;;5083570;27;27467;-61
2021/05/16 14:00:22;;;;;;;1.77;0.80;;;20.40;54.80;;;;;;5123475;27;27411;-61
2021/05/16 14:03:53;;;;;;;1.92;0.93;;;20.30;56.90;;;;;;5125057;27;27386;-61
2021/05/16 14:06:50;;;;;;;2.90;0.88;;;20.30;57.30;;;;;;5125748;27;27488;-61
2021/05/16 14:09:56;;;;;;;3.42;1.13;;;20.10;56.80;;;;;;5125787;27;27315;-61
2021/05/16 14:12:47;;;;;;;1.92;0.90;;;20.00;58.10;;;;;;5125347;27;27372;-61
2021/05/16 14:15:52;;;;;;;2.47;1.33;;;19.90;59.60;;;;;;5125519;27;27444;-61
2021/05/16 14:18:43;;;;;;;3.15;0.85;;;19.80;58.80;;;;;;5106830;27;27510;-61
2021/05/16 14:21:34;;;;;;;6.50;0.95;;;19.70;58.70;;;;;;5125648;27;27485;-61
2021/05/16 14:24:31;;;;;;;2.58;0.93;;;19.70;60.00;;;;;;5106674;27;27528;-61
2021/05/16 14:27:48;;;;;;;4.57;1.17;;;19.60;60.70;;;;;;5124825;27;27431;-61
2021/05/16 14:31:15;;;;;;;1.50;0.77;;;19.50;61.20;;;;;;5124791;27;27470;-61
2021/05/16 14:34:06;;;;;;;3.67;0.80;;;19.50;59.40;;;;;;5123987;27;27481;-61
2021/05/16 14:37:18;;;;;;;2.30;1.27;;;19.50;61.80;;;;;;5125114;27;27365;-61
2021/05/16 14:40:03;;;;;;;2.15;0.90;;;19.50;61.80;;;;;;5125308;27;27401;-61
2021/05/16 14:43:33;;;;;;;1.42;1.00;;;19.50;62.20;;;;;;5125047;27;27399;-61
2021/05/16 14:46:27;;;;;;;4.32;1.35;;;19.40;61.80;;;;;;5124821;27;27479;-61
2021/05/16 14:49:19;;;;;;;3.10;1.05;;;19.40;62.10;;;;;;5121898;27;27387;-61
2021/05/16 14:52:32;;;;;;;1.92;1.10;;;19.50;60.60;;;;;;5124971;27;27336;-61
2021/05/16 14:55:46;;;;;;;3.67;1.65;;;19.50;63.10;;;;;;5123842;27;27404;-61
2021/05/16 14:58:55;;;;;;;3.67;1.17;;;19.70;60.50;;;;;;5124727;27;27435;-61
2021/05/16 15:01:41;;;;;;;1.25;0.90;;;19.70;59.40;;;;;;5125062;27;27447;-61
2021/05/16 15:04:39;;;;;;;2.50;0.80;;;19.70;61.00;;;;;;5103022;28;27361;-61
2021/05/16 15:07:30;;;;;;;3.60;1.15;;;19.70;62.00;;;;;;5076260;28;27424;-61
2021/05/16 15:10:26;;;;;;;1.15;0.80;;;19.70;59.70;;;;;;5104382;28;27963;-61
2021/05/16 15:13:39;;;;;;;1.88;1.00;;;19.80;62.00;;;;;;5104087;28;27356;-61
2021/05/16 15:17:06;;;;;;;1.13;0.70;;;19.80;61.90;;;;;;5102538;28;27339;-61
2021/05/16 15:20:27;;;;;;;3.40;2.00;;;19.80;60.40;;;;;;5100494;28;27469;-61
2021/05/16 15:23:36;;;;;;;2.30;0.98;;;19.80;60.90;;;;;;5103312;28;27426;-61
2021/05/16 15:26:28;;;;;;;1.88;0.68;;;19.90;60.50;;;;;;5103642;28;27367;-61
2021/05/16 15:29:19;;;;;;;4.25;1.80;;;19.90;61.60;;;;;;5103950;28;27375;-61
2021/05/16 15:32:17;;;;;;;1.70;0.85;;;20.00;60.50;;;;;;5104110;28;27471;-61
2021/05/16 15:35:48;;;;;;;2.00;1.25;;;20.00;59.90;;;;;;5100253;28;27423;-61
2021/05/16 15:38:46;;;;;;;8.93;2.28;;;20.00;59.70;;;;;;5103390;28;27419;-61
2021/05/16 15:41:39;;;;;;;3.35;0.80;;;20.10;60.90;;;;;;5103820;28;27464;-61
2021/05/16 15:44:41;;;;;;;1.30;0.68;;;20.10;61.40;;;;;;5101552;27;27407;-61
2021/05/16 15:47:33;;;;;;;1.63;0.80;;;20.10;60.30;;;;;;5106994;28;27962;-61
2021/05/16 15:50:39;;;;;;;2.05;0.70;;;20.10;59.80;;;;;;5106957;28;27426;-61